Time;durP1;ratioP1;P1;durP2;ratioP2;P2;SDS_P1;SDS_P2;PMS_P1;PMS_P2;Temp;Humidity;BMP_temperature;BMP_pressure;BME280_temperature;BME280_humidity;BME280_pressure;Samples;Min_cycle;Max_cycle;Signal;HPM_P1;HPM_P2
2022/04/28 00:01:00;;;;;;;5.18;4.25;;;;;;;17.83;68.45;101564.66;5033587;28;20090;-83
2022/04/28 00:03:25;;;;;;;;;;;;;;;17.87;68.62;101566.56;5032786;28;20037;-83
2022/04/28 00:05:51;;;;;;;4.63;3.90;;;;;;;17.81;68.43;101561.03;5032223;28;19913;-83
2022/04/28 00:08:17;;;;;;;5.50;3.92;;;;;;;17.81;68.59;101574.22;5031687;28;20044;-84
2022/04/28 00:10:43;;;;;;;5.80;3.80;;;;;;;17.59;68.49;101534.63;5015843;28;20041;-84
2022/04/28 00:13:13;;;;;;;5.28;4.00;;;;;;;17.79;68.56;101573.28;5033566;28;20030;-83
2022/04/28 00:15:39;;;;;;;4.95;3.83;;;;;;;17.79;68.35;101578.56;5031615;28;20037;-84
2022/04/28 00:18:04;;;;;;;6.35;3.85;;;;;;;17.79;68.35;101575.03;5032828;28;20037;-83
2022/04/28 00:20:30;;;;;;;5.93;4.15;;;;;;;17.66;68.46;101549.91;5015542;28;20033;-84
2022/04/28 00:22:56;;;;;;;5.40;4.07;;;;;;;17.70;68.43;101560.63;5031630;28;20509;-83
2022/04/28 00:25:22;;;;;;;5.10;4.03;;;;;;;17.52;68.43;101519.41;5032101;28;20113;-83
2022/04/28 00:27:49;;;;;;;5.10;3.72;;;;;;;17.52;68.58;101516.78;5036535;28;20108;-84
2022/04/28 00:30:14;;;;;;;;;;;;;;;17.81;68.52;101563.66;5051628;28;20029;-83
2022/04/28 00:32:40;;;;;;;4.82;3.30;;;;;;;17.57;68.23;101528.41;5022122;28;20012;-82
2022/04/28 00:35:06;;;;;;;7.57;3.90;;;;;;;17.60;68.46;101540.00;5032225;28;20036;-83
2022/04/28 00:37:31;;;;;;;5.00;3.90;;;;;;;17.47;68.40;101514.84;5032920;28;20045;-83
2022/04/28 00:39:57;;;;;;;5.28;3.97;;;;;;;17.57;68.41;101528.41;5031681;28;20044;-83
2022/04/28 00:42:23;;;;;;;5.40;3.80;;;;;;;17.53;68.47;101522.13;5032618;28;20078;-83
2022/04/28 00:44:48;;;;;;;6.50;4.10;;;;;;;17.61;68.35;101543.53;5044733;28;20029;-83
2022/04/28 00:47:14;;;;;;;4.82;3.70;;;;;;;17.50;68.62;101524.63;5045630;28;20513;-83
2022/04/28 00:52:24;;;;;;;5.18;3.95;;;;;;;17.64;68.57;101543.66;5032510;28;20094;-83
2022/04/28 00:54:53;;;;;;;;;;;;;;;17.76;68.64;101559.03;5031585;28;20052;-83
2022/04/28 00:57:19;;;;;;;5.53;3.63;;;;;;;17.59;68.38;101540.84;5031043;28;19916;-83
2022/04/28 00:59:45;;;;;;;;;;;;;;;17.75;68.76;101559.91;5030818;28;20034;-83
2022/04/28 01:02:11;;;;;;;5.15;3.67;;;;;;;17.69;68.54;101560.56;5030767;28;19923;-83
2022/04/28 01:04:38;;;;;;;4.63;3.50;;;;;;;17.69;68.60;101568.50;5031439;28;20075;-83
2022/04/28 01:07:07;;;;;;;4.35;3.42;;;;;;;17.64;68.70;101554.22;5032413;28;20033;-83
2022/04/28 01:09:39;;;;;;;4.75;3.70;;;;;;;17.48;68.91;101524.59;5031028;28;20017;-83
2022/04/28 01:12:05;;;;;;;4.85;3.85;;;;;;;17.67;68.67;101562.25;5031246;28;20108;-84
2022/04/28 01:14:31;;;;;;;5.22;3.40;;;;;;;17.54;68.62;101536.22;5031082;28;20180;-82
2022/04/28 01:16:59;;;;;;;3.80;3.35;;;;;;;17.64;68.68;101559.50;5032326;28;20512;-83
2022/04/28 01:19:25;;;;;;;3.90;3.50;;;;;;;17.59;68.76;101545.19;5031810;28;20030;-83
2022/04/28 01:21:51;;;;;;;3.92;3.53;;;;;;;17.66;68.70;101561.34;5032076;28;20163;-83
2022/04/28 01:24:17;;;;;;;5.50;3.45;;;;;;;17.63;68.69;101550.69;5031045;28;20045;-82
2022/04/28 01:26:46;;;;;;;4.53;3.67;;;;;;;17.64;68.66;101557.75;5030797;28;20026;-83
2022/04/28 01:29:12;;;;;;;5.40;3.50;;;;;;;17.62;68.63;101551.50;5030864;28;20033;-82
2022/04/28 01:31:37;;;;;;;5.32;3.42;;;;;;;17.63;68.69;101552.41;5032064;28;20022;-82
2022/04/28 01:34:03;;;;;;;3.78;3.20;;;;;;;17.63;68.51;101555.97;5030585;28;20040;-82
2022/04/28 01:36:29;;;;;;;4.22;3.83;;;;;;;17.25;68.54;101483.19;5039518;28;20032;-82
2022/04/28 01:38:55;;;;;;;3.45;3.05;;;;;;;17.41;68.46;101516.38;5051914;28;20124;-82
2022/04/28 01:41:20;;;;;;;3.63;3.25;;;;;;;17.43;68.58;101517.34;5036317;28;20060;-82
2022/04/28 01:43:46;;;;;;;3.75;3.33;;;;;;;17.42;68.96;101529.63;5030808;28;20025;-82
2022/04/28 01:46:12;;;;;;;5.18;3.47;;;;;;;17.61;68.79;101554.09;5031877;28;20100;-82
2022/04/28 01:48:38;;;;;;;4.95;3.55;;;;;;;17.29;68.73;101498.31;5031695;28;20517;-82
2022/04/28 01:56:32;;;;;;;3.55;3.22;;;;;;;17.52;68.37;101541.44;5071990;28;20043;-83
2022/04/28 01:58:58;;;;;;;4.28;3.22;;;;;;;17.58;68.58;101556.63;5071587;28;20413;-83
2022/04/28 02:01:24;;;;;;;3.78;3.35;;;;;;;17.57;68.68;101550.44;5053707;28;20024;-82
2022/04/28 02:03:49;;;;;;;3.85;3.38;;;;;;;17.58;68.64;101548.69;5053702;28;20028;-82
2022/04/28 02:06:16;;;;;;;4.95;3.05;;;;;;;17.53;68.77;101543.25;5071370;28;20036;-82
2022/04/28 02:08:42;;;;;;;4.25;3.38;;;;;;;17.46;68.87;101528.91;5071551;28;20187;-82
2022/04/28 02:11:07;;;;;;;3.35;3.00;;;;;;;17.43;68.79;101528.78;5054987;28;20120;-82
2022/04/28 02:13:33;;;;;;;3.72;3.33;;;;;;;17.43;68.72;101519.97;5051472;28;20033;-83
2022/04/28 02:15:59;;;;;;;3.67;3.08;;;;;;;17.34;68.69;101507.31;5033710;28;20642;-82
2022/04/28 02:18:25;;;;;;;4.55;3.33;;;;;;;17.53;68.81;101532.69;5051394;28;20029;-82
2022/04/28 02:20:50;;;;;;;3.90;3.17;;;;;;;17.49;68.56;101531.66;5051247;28;20039;-82
2022/04/28 02:23:16;;;;;;;3.38;3.08;;;;;;;17.42;68.61;101510.22;5051308;28;20464;-82
2022/04/28 02:25:41;;;;;;;4.05;3.22;;;;;;;17.47;68.67;101522.78;5051293;28;20014;-82
2022/04/28 02:28:07;;;;;;;4.47;3.28;;;;;;;17.38;68.75;101508.34;5033551;28;20037;-83
2022/04/28 02:30:33;;;;;;;4.05;3.47;;;;;;;17.41;68.78;101517.25;5070850;28;20021;-83
2022/04/28 02:33:10;;;;;;;4.30;3.30;;;;;;;17.29;68.70;101490.38;5052691;28;20082;-83
2022/04/28 02:35:37;;;;;;;4.38;3.25;;;;;;;17.37;68.48;101510.06;5055046;28;20489;-84
2022/04/28 02:38:03;;;;;;;3.85;3.25;;;;;;;17.48;68.67;101537.81;5065298;28;20029;-83
2022/04/28 02:40:29;;;;;;;3.72;3.10;;;;;;;17.34;68.83;101514.34;5050828;28;20025;-83
2022/04/28 02:42:55;;;;;;;4.53;3.47;;;;;;;17.25;68.83;101506.94;5068146;28;20127;-83
2022/04/28 02:45:21;;;;;;;3.95;2.95;;;;;;;17.47;68.82;101546.53;5067492;28;20545;-83
2022/04/28 02:47:46;;;;;;;4.03;3.08;;;;;;;17.37;68.75;101525.91;5050984;28;20237;-83
2022/04/28 02:50:12;;;;;;;4.78;3.08;;;;;;;17.47;68.68;101545.66;5050896;28;20473;-83
2022/04/28 02:52:38;;;;;;;4.60;3.20;;;;;;;17.46;68.73;101547.41;5051116;28;20033;-83
2022/04/28 02:55:05;;;;;;;3.17;2.88;;;;;;;17.35;68.71;101534.63;5033217;28;20497;-82
2022/04/28 02:57:30;;;;;;;3.10;2.80;;;;;;;17.35;68.72;101540.78;5033228;28;20071;-82
2022/04/28 02:59:57;;;;;;;3.03;2.72;;;;;;;17.45;68.64;101556.16;5050439;28;20067;-83
2022/04/28 03:02:24;;;;;;;3.33;3.03;;;;;;;17.44;68.77;101557.00;5050232;28;20478;-82
2022/04/28 03:04:49;;;;;;;3.83;2.92;;;;;;;17.44;68.80;101567.56;5032726;28;20039;-82
2022/04/28 03:12:44;;;;;;;3.05;2.75;;;;;;;17.39;68.67;101568.22;5062586;28;20031;-81
2022/04/28 03:15:11;;;;;;;3.95;2.90;;;;;;;17.41;68.61;101571.81;5072654;28;20046;-81
2022/04/28 03:17:36;;;;;;;3.78;3.10;;;;;;;17.41;68.67;101567.44;5035720;28;20021;-81
2022/04/28 03:20:03;;;;;;;3.55;2.85;;;;;;;17.40;68.59;101570.94;5050931;28;20033;-81
2022/04/28 03:22:29;;;;;;;4.13;3.13;;;;;;;17.35;68.68;101567.19;5032260;28;20021;-81
2022/04/28 03:24:54;;;;;;;6.90;3.03;;;;;;;17.39;68.72;101574.41;5049903;28;20108;-81
2022/04/28 03:27:20;;;;;;;3.83;2.78;;;;;;;17.37;68.71;101569.91;5049860;28;20033;-81
2022/04/28 03:29:45;;;;;;;4.32;3.25;;;;;;;17.29;68.85;101562.59;5032357;28;20504;-82
2022/04/28 03:32:11;;;;;;;3.13;2.83;;;;;;;17.25;68.61;101547.47;5032991;28;20029;-82
2022/04/28 03:34:36;;;;;;;3.22;2.90;;;;;;;17.31;68.82;101570.53;5033032;28;20033;-81
2022/04/28 03:37:03;;;;;;;3.55;3.00;;;;;;;17.35;69.06;101569.81;5033057;28;20037;-82
2022/04/28 03:39:29;;;;;;;3.67;3.28;;;;;;;17.37;68.74;101573.44;5032898;28;20116;-82
2022/04/28 03:41:54;;;;;;;3.85;3.20;;;;;;;17.36;68.76;101574.28;5050725;28;20030;-82
2022/04/28 03:44:20;;;;;;;4.15;2.92;;;;;;;17.29;68.89;101567.88;5052406;28;20036;-84
2022/04/28 03:46:46;;;;;;;3.45;2.95;;;;;;;17.33;68.89;101566.22;5016964;28;20490;-83
2022/04/28 03:49:12;;;;;;;6.22;3.05;;;;;;;17.28;68.70;101560.78;5018206;28;20414;-84
2022/04/28 03:51:39;;;;;;;5.07;3.20;;;;;;;17.32;68.61;101568.84;5051807;28;20067;-83
2022/04/28 03:54:05;;;;;;;5.47;3.10;;;;;;;17.34;68.79;101575.97;5053829;28;20178;-84
2022/04/28 03:56:32;;;;;;;3.40;2.67;;;;;;;17.22;68.77;101552.63;5053814;28;20063;-83
2022/04/28 03:58:59;;;;;;;3.38;2.88;;;;;;;17.01;68.72;101528.00;5030355;28;20562;-84
2022/04/28 04:01:25;;;;;;;2.88;2.67;;;;;;;16.94;68.77;101512.78;5036054;28;20033;-84
2022/04/28 04:03:51;;;;;;;3.10;2.72;;;;;;;17.25;68.57;101565.03;5019609;28;20516;-83
2022/04/28 04:06:16;;;;;;;3.33;2.92;;;;;;;17.04;68.67;101531.69;5035914;28;20138;-84
2022/04/28 04:08:42;;;;;;;3.83;3.10;;;;;;;17.25;68.55;101571.22;5029384;28;20029;-83
2022/04/28 04:11:08;;;;;;;4.32;3.13;;;;;;;17.15;68.66;101553.22;5053829;28;20025;-84
2022/04/28 04:13:34;;;;;;;4.22;3.17;;;;;;;17.30;68.67;101581.97;5035840;28;20055;-83
2022/04/28 04:16:00;;;;;;;4.35;2.90;;;;;;;17.21;68.71;101565.78;5036073;28;20032;-83
2022/04/28 04:18:25;;;;;;;3.88;3.10;;;;;;;17.11;68.76;101558.31;5026111;28;20030;-84
2022/04/28 04:20:51;;;;;;;4.55;3.30;;;;;;;17.23;68.67;101570.25;5041280;28;20033;-84
2022/04/28 04:23:17;;;;;;;6.63;3.20;;;;;;;17.14;68.75;101561.06;5053656;28;20067;-84
2022/04/28 04:25:43;;;;;;;4.03;3.08;;;;;;;17.12;68.63;101560.09;5035565;28;20029;-84
2022/04/28 04:28:08;;;;;;;5.03;3.10;;;;;;;17.05;68.68;101543.13;5034081;28;20135;-84
2022/04/28 04:33:18;;;;;;;4.55;3.15;;;;;;;17.18;68.67;101574.44;5038110;28;20082;-85
2022/04/28 04:35:44;;;;;;;4.00;3.47;;;;;;;17.13;68.87;101572.47;5020708;28;20030;-84
2022/04/28 04:38:09;;;;;;;4.35;3.70;;;;;;;17.16;68.67;101577.88;5032141;28;20033;-84
2022/04/28 04:40:35;;;;;;;5.47;3.60;;;;;;;17.20;68.63;101585.06;5033261;28;20029;-83
2022/04/28 04:43:02;;;;;;;5.20;4.13;;;;;;;17.24;68.79;101592.28;5033241;28;20029;-86
2022/04/28 04:45:28;;;;;;;5.95;3.70;;;;;;;17.16;68.70;101577.88;5015826;28;20408;-86
2022/04/28 04:47:53;;;;;;;12.07;4.55;;;;;;;16.93;68.30;101563.75;5015736;28;20049;-87
2022/04/28 04:50:19;;;;;;;13.98;5.97;;;;;;;16.97;68.76;101573.59;5033115;28;20483;-85
2022/04/28 04:52:45;;;;;;;14.60;6.18;;;;;;;16.91;68.31;101578.59;5015342;28;20033;-83
2022/04/28 04:55:10;;;;;;;13.40;5.82;;;;;;;17.14;68.00;101591.00;5012222;28;20140;-84
2022/04/28 04:57:36;;;;;;;14.52;6.38;;;;;;;17.02;68.30;101569.41;5018857;28;20042;-84
2022/04/28 05:00:04;;;;;;;12.52;5.70;;;;;;;17.10;68.09;101570.59;5023670;28;20026;-84
2022/04/28 05:02:29;;;;;;;15.90;5.50;;;;;;;17.19;68.27;101581.53;5013877;28;20488;-83
2022/04/28 05:04:55;;;;;;;9.18;5.32;;;;;;;17.18;68.13;101584.09;5010643;28;20084;-83
2022/04/28 05:07:21;;;;;;;10.18;4.78;;;;;;;17.15;68.55;101570.81;5010016;28;20038;-83
2022/04/28 05:09:48;;;;;;;9.48;4.47;;;;;;;17.16;69.17;101578.75;5011439;28;20064;-84
2022/04/28 05:12:13;;;;;;;8.77;4.60;;;;;;;17.11;69.24;101566.25;5011544;28;20033;-84
2022/04/28 05:14:39;;;;;;;9.75;4.60;;;;;;;17.16;68.56;101576.13;5011448;28;20057;-82
2022/04/28 05:17:05;;;;;;;8.27;4.75;;;;;;;17.21;69.12;101594.81;5011440;28;20044;-83
2022/04/28 05:19:30;;;;;;;9.88;4.45;;;;;;;17.13;68.68;101577.75;5011338;28;20522;-83
2022/04/28 05:21:56;;;;;;;6.32;4.18;;;;;;;17.20;69.09;101595.63;5012845;28;20017;-83
2022/04/28 05:24:22;;;;;;;7.65;4.40;;;;;;;17.18;68.65;101600.84;5011567;28;20033;-83
2022/04/28 05:26:47;;;;;;;10.85;4.30;;;;;;;17.17;68.98;101598.16;5012540;28;20507;-83
2022/04/28 05:29:13;;;;;;;6.20;4.38;;;;;;;17.20;68.73;101603.53;5012882;28;20026;-83
2022/04/28 05:31:39;;;;;;;7.97;3.92;;;;;;;17.12;68.70;101597.06;5012501;28;20032;-83
2022/04/28 05:34:04;;;;;;;7.43;4.55;;;;;;;17.13;69.03;101604.16;5012637;28;20022;-83
2022/04/28 05:36:30;;;;;;;6.75;4.35;;;;;;;17.15;68.71;101602.47;5012529;28;20057;-83
2022/04/28 05:38:59;;;;;;;6.80;4.22;;;;;;;16.96;68.84;101572.69;5012547;28;20025;-83
2022/04/28 05:41:25;;;;;;;7.15;4.38;;;;;;;17.20;69.17;101622.91;5011190;28;20026;-83
2022/04/28 05:46:36;;;;;;;8.88;4.78;;;;;;;17.19;69.50;101607.03;5012255;28;20033;-84
2022/04/28 05:49:02;;;;;;;6.25;4.35;;;;;;;17.16;68.78;101610.44;5012363;28;20018;-83
2022/04/28 05:51:28;;;;;;;5.53;4.20;;;;;;;17.12;69.24;101597.94;5012383;28;20030;-84
2022/04/28 05:53:54;;;;;;;7.53;4.22;;;;;;;17.17;69.16;101612.25;5021179;28;20407;-84
2022/04/28 05:56:19;;;;;;;5.93;3.80;;;;;;;17.17;69.10;101608.72;5031814;28;20108;-83
2022/04/28 05:58:45;;;;;;;6.57;4.30;;;;;;;17.20;69.12;101617.63;5031793;28;20656;-84
2022/04/28 06:01:10;;;;;;;8.10;4.30;;;;;;;17.05;69.05;101591.53;5031652;28;20025;-83
2022/04/28 06:03:36;;;;;;;7.55;3.97;;;;;;;16.81;68.95;101558.88;5031724;28;20029;-83
2022/04/28 06:06:02;;;;;;;7.22;4.38;;;;;;;17.15;69.16;101613.94;5031196;28;20029;-83
2022/04/28 06:08:27;;;;;;;5.78;3.90;;;;;;;17.11;68.89;101614.63;5031222;28;20620;-83
2022/04/28 06:10:53;;;;;;;5.47;3.55;;;;;;;17.21;69.21;101624.75;5031598;28;20637;-83
2022/04/28 06:13:18;;;;;;;5.20;3.50;;;;;;;17.14;68.96;101612.09;5030358;28;20036;-82
2022/04/28 06:15:44;;;;;;;8.25;3.70;;;;;;;17.18;69.22;101621.06;5031660;28;20405;-84
2022/04/28 06:18:10;;;;;;;4.88;3.83;;;;;;;17.21;69.27;101631.75;5031618;28;20430;-84
2022/04/28 06:20:35;;;;;;;10.77;3.92;;;;;;;17.16;69.16;101623.63;5030237;28;20104;-83
2022/04/28 06:23:01;;;;;;;4.40;3.63;;;;;;;17.11;69.42;101611.09;5030338;28;20037;-83
2022/04/28 06:25:28;;;;;;;6.95;3.42;;;;;;;17.10;69.39;101610.19;5048286;28;20040;-83
2022/04/28 06:27:53;;;;;;;5.63;3.90;;;;;;;17.24;69.65;101637.16;5051257;28;20033;-85
2022/04/28 06:30:19;;;;;;;6.75;4.03;;;;;;;17.05;69.52;101598.56;5051296;28;20029;-84
2022/04/28 06:32:44;;;;;;;6.15;3.88;;;;;;;17.16;69.72;101617.47;5033929;28;20587;-83
2022/04/28 06:35:10;;;;;;;6.05;3.72;;;;;;;17.12;70.02;101611.16;5035031;28;20048;-84
2022/04/28 06:37:36;;;;;;;6.07;3.58;;;;;;;17.20;69.98;101619.38;5055302;28;20109;-84
2022/04/28 06:40:03;;;;;;;6.43;4.00;;;;;;;17.24;70.14;101634.50;5053513;28;20078;-83
2022/04/28 06:42:28;;;;;;;5.88;3.90;;;;;;;17.13;69.72;101615.59;5033736;28;20033;-84
2022/04/28 06:44:54;;;;;;;6.05;3.78;;;;;;;17.07;70.00;101610.06;5051352;28;20025;-84
2022/04/28 06:47:21;;;;;;;6.80;3.72;;;;;;;16.77;70.26;101563.09;5051131;28;20040;-84
2022/04/28 06:49:47;;;;;;;5.45;3.70;;;;;;;17.12;70.05;101613.78;5051178;28;20406;-84
2022/04/28 06:52:12;;;;;;;4.05;3.22;;;;;;;17.13;70.20;101625.25;5051103;28;20047;-84
2022/04/28 06:54:38;;;;;;;4.50;3.78;;;;;;;16.96;70.43;101601.72;5033336;28;20055;-83
2022/04/28 06:57:04;;;;;;;5.47;3.40;;;;;;;17.17;70.41;101643.03;5051111;28;20033;-84
2022/04/28 06:59:30;;;;;;;3.85;3.42;;;;;;;17.08;70.79;101635.59;5033519;28;20021;-83
2022/04/28 07:01:56;;;;;;;5.28;3.47;;;;;;;17.14;70.77;101642.88;5016771;28;20112;-84
2022/04/28 07:04:21;;;;;;;6.93;3.53;;;;;;;17.17;70.90;101635.13;5033192;28;20021;-84
2022/04/28 07:06:47;;;;;;;4.40;3.53;;;;;;;16.86;71.03;101602.16;5051080;28;20120;-83
2022/04/28 07:09:12;;;;;;;5.10;3.60;;;;;;;17.06;70.60;101626.75;5033266;28;20104;-83
2022/04/28 07:11:38;;;;;;;4.60;3.55;;;;;;;17.07;70.78;101626.78;5050770;28;20043;-83
2022/04/28 07:14:03;;;;;;;5.10;3.58;;;;;;;17.17;70.83;101646.56;5050922;28;20059;-84
2022/04/28 07:16:29;;;;;;;4.68;3.60;;;;;;;17.16;70.83;101646.50;5050482;28;20116;-84
2022/04/28 07:18:55;;;;;;;3.95;3.28;;;;;;;17.18;70.88;101644.81;5053217;28;20091;-83
2022/04/28 07:21:20;;;;;;;4.28;3.00;;;;;;;17.05;70.73;101624.94;5054511;28;20489;-84
2022/04/28 07:23:46;;;;;;;4.70;3.33;;;;;;;17.17;70.70;101637.75;5053118;28;20577;-84
2022/04/28 07:26:11;;;;;;;5.25;3.15;;;;;;;16.86;70.57;101591.63;5052708;28;20498;-84
2022/04/28 07:28:37;;;;;;;5.32;3.70;;;;;;;16.94;70.67;101611.31;5036512;28;20072;-84
2022/04/28 07:31:03;;;;;;;5.65;3.58;;;;;;;17.20;70.81;101659.88;5054413;28;20568;-84
2022/04/28 07:33:29;;;;;;;4.15;3.33;;;;;;;17.05;70.60;101615.28;5036717;28;20080;-84
2022/04/28 07:35:55;;;;;;;5.07;3.40;;;;;;;17.25;70.49;101652.13;5054759;28;20387;-84
2022/04/28 07:38:22;;;;;;;4.93;3.50;;;;;;;17.18;70.30;101642.19;5054393;28;20025;-84
2022/04/28 07:40:48;;;;;;;4.13;3.38;;;;;;;17.08;70.30;101615.41;5053964;28;20051;-84
2022/04/28 07:43:14;;;;;;;5.75;3.88;;;;;;;17.14;70.52;101632.31;5054244;28;20024;-84
2022/04/28 07:45:40;;;;;;;4.78;3.30;;;;;;;17.25;70.40;101644.22;5053386;28;20032;-83
2022/04/28 07:48:05;;;;;;;4.85;3.28;;;;;;;16.94;69.90;101592.84;5052443;28;20064;-84
2022/04/28 07:50:32;;;;;;;4.10;3.38;;;;;;;17.18;70.17;101634.25;5052601;28;20441;-84
2022/04/28 07:52:57;;;;;;;5.50;3.45;;;;;;;17.19;70.28;101636.06;5052555;28;20110;-83
2022/04/28 07:55:23;;;;;;;3.95;3.50;;;;;;;17.33;70.70;101665.66;5052995;28;20100;-83
2022/04/28 07:57:49;;;;;;;3.90;3.10;;;;;;;17.36;70.20;101671.97;5044084;28;20029;-84
2022/04/28 08:00:15;;;;;;;4.93;3.72;;;;;;;17.19;69.97;101626.41;5043354;28;20032;-84
2022/04/28 08:02:40;;;;;;;3.55;3.25;;;;;;;17.24;70.17;101650.34;5037726;28;20076;-84
2022/04/28 08:05:06;;;;;;;4.53;3.10;;;;;;;17.20;70.37;101641.41;5054177;28;20098;-83
2022/04/28 08:07:33;;;;;;;4.72;3.30;;;;;;;17.37;70.25;101672.88;5036004;28;20040;-84
2022/04/28 08:09:59;;;;;;;4.70;3.40;;;;;;;17.35;70.21;101662.25;5036102;28;20172;-83
2022/04/28 08:12:24;;;;;;;5.15;3.25;;;;;;;17.35;70.20;101659.59;5036033;28;20490;-84
2022/04/28 08:14:50;;;;;;;3.70;3.35;;;;;;;17.24;70.16;101651.25;5053730;28;20025;-84
2022/04/28 08:17:16;;;;;;;5.28;3.38;;;;;;;17.38;70.35;101677.34;5053656;28;20021;-84
2022/04/28 08:19:41;;;;;;;6.38;3.30;;;;;;;17.35;70.07;101669.25;5035960;28;20509;-84
2022/04/28 08:22:08;;;;;;;6.45;3.50;;;;;;;17.29;70.24;101664.63;5035746;28;20021;-83
2022/04/28 08:24:33;;;;;;;;;;;;;;;17.44;69.91;101689.03;5053933;28;20033;-84
2022/04/28 08:26:59;;;;;;;6.68;3.45;;;;;;;17.42;70.22;101690.72;5052225;28;19919;-84
2022/04/28 08:29:25;;;;;;;6.03;3.70;;;;;;;17.27;70.17;101663.66;5034770;28;20032;-84
2022/04/28 08:31:50;;;;;;;4.82;3.50;;;;;;;17.43;70.23;101686.31;5035657;28;20120;-84
2022/04/28 08:34:21;;;;;;;5.30;3.75;;;;;;;17.27;69.96;101661.03;5053309;28;20021;-84
2022/04/28 08:36:48;;;;;;;7.18;3.78;;;;;;;17.44;70.15;101690.75;5019573;28;20081;-84
2022/04/28 08:39:13;;;;;;;8.40;3.90;;;;;;;17.44;70.37;101693.38;5053211;28;20051;-84
2022/04/28 08:41:47;;;;;;;9.27;3.88;;;;;;;17.42;70.37;101688.06;5053260;28;20056;-84
2022/04/28 08:44:28;;;;;;;7.25;3.92;;;;;;;17.45;70.29;101695.22;5036403;28;20544;-84
2022/04/28 08:46:54;;;;;;;8.65;4.68;;;;;;;17.40;70.19;101692.38;5035324;28;20094;-84
2022/04/28 08:49:23;;;;;;;8.45;4.32;;;;;;;17.46;70.33;101691.72;5053044;28;20017;-84
2022/04/28 08:51:53;;;;;;;8.25;4.47;;;;;;;17.45;70.35;101698.75;5052896;28;20021;-84
2022/04/28 08:54:19;;;;;;;10.38;5.25;;;;;;;17.46;70.48;101699.63;5035246;28;20044;-84
2022/04/28 08:56:45;;;;;;;8.82;4.57;;;;;;;17.46;70.39;101705.84;5035326;28;20037;-84
2022/04/28 08:59:10;;;;;;;10.15;4.53;;;;;;;17.30;70.43;101675.25;5052917;28;20025;-84
2022/04/28 09:01:36;;;;;;;9.75;4.93;;;;;;;17.29;70.64;101670.84;5035143;28;20037;-84
2022/04/28 09:04:04;;;;;;;12.43;5.50;;;;;;;17.45;70.93;101701.38;5035051;28;20033;-84
2022/04/28 09:06:35;;;;;;;16.30;5.30;;;;;;;17.44;70.64;101699.59;5034850;28;20025;-83
2022/04/28 09:09:04;;;;;;;14.63;5.60;;;;;;;17.47;70.73;101707.63;5034986;28;20434;-84
2022/04/28 09:11:32;;;;;;;14.27;5.50;;;;;;;17.49;70.71;101710.34;5052491;28;20106;-84
2022/04/28 09:14:11;;;;;;;14.65;5.75;;;;;;;17.31;70.83;101681.44;5034991;28;20425;-84
2022/04/28 09:16:47;;;;;;;16.33;6.15;;;;;;;17.51;70.81;101716.59;5036706;28;20438;-84
2022/04/28 09:19:19;;;;;;;15.23;5.78;;;;;;;17.49;70.75;101711.25;5034603;28;20033;-83
2022/04/28 09:21:46;;;;;;;14.80;5.88;;;;;;;17.43;71.25;101710.09;5052364;28;20082;-83
2022/04/28 09:24:14;;;;;;;15.80;6.10;;;;;;;17.50;70.57;101710.41;5052417;28;20025;-84
2022/04/28 09:26:41;;;;;;;14.32;5.63;;;;;;;17.49;70.80;101713.88;5034290;28;20043;-84
2022/04/28 09:29:12;;;;;;;15.13;6.20;;;;;;;17.44;71.02;101712.81;5052285;28;20025;-84
2022/04/28 09:31:39;;;;;;;17.00;6.45;;;;;;;17.50;71.03;101718.34;5052018;28;20104;-83
2022/04/28 09:34:15;;;;;;;16.05;6.28;;;;;;;17.43;71.17;101700.41;5052224;28;20025;-84
2022/04/28 09:36:43;;;;;;;14.85;6.10;;;;;;;17.52;71.28;101720.13;5052061;28;20036;-83
2022/04/28 09:39:13;;;;;;;20.55;7.05;;;;;;;17.53;71.25;101717.56;5052160;28;20089;-84
2022/04/28 09:44:23;;;;;;;19.38;7.20;;;;;;;17.36;71.38;101693.09;5053154;28;20032;-83
2022/04/28 09:46:50;;;;;;;18.40;7.25;;;;;;;17.55;71.23;101720.28;5026327;28;20025;-84
2022/04/28 09:49:17;;;;;;;22.05;7.93;;;;;;;17.56;71.34;101720.31;5047327;28;20028;-84
2022/04/28 09:51:44;;;;;;;19.52;7.60;;;;;;;17.54;71.60;101718.44;5052941;28;20560;-84
2022/04/28 09:54:14;;;;;;;22.60;7.72;;;;;;;17.57;71.23;101722.13;5034095;28;20127;-84
2022/04/28 09:56:41;;;;;;;26.48;8.32;;;;;;;17.56;71.49;101732.63;5034003;28;20533;-84
2022/04/28 09:59:09;;;;;;;21.60;7.88;;;;;;;17.60;71.22;101727.53;5034026;28;20025;-85
2022/04/28 10:01:37;;;;;;;20.08;7.60;;;;;;;17.31;71.17;101678.78;5034194;28;20086;-84
2022/04/28 10:04:07;;;;;;;20.45;7.82;;;;;;;17.39;71.50;101698.50;5034326;28;20050;-84
2022/04/28 10:06:36;;;;;;;17.02;7.57;;;;;;;17.60;71.54;101734.53;5051533;28;20025;-84
2022/04/28 10:09:12;;;;;;;20.40;7.95;;;;;;;17.60;71.24;101731.91;5034578;28;20405;-84
2022/04/28 10:11:38;;;;;;;23.40;8.20;;;;;;;17.44;71.27;101699.59;5034464;28;20032;-84
2022/04/28 10:14:03;;;;;;;21.20;7.75;;;;;;;17.54;71.18;101707.88;5051151;28;20033;-84
2022/04/28 10:16:29;;;;;;;21.90;7.72;;;;;;;17.63;71.35;101724.09;5051156;28;20032;-84
2022/04/28 10:19:02;;;;;;;22.52;7.78;;;;;;;17.64;70.73;101723.28;5051315;28;20059;-84
2022/04/28 10:22:10;;;;;;;20.33;7.63;;;;;;;17.63;70.72;101722.38;5051527;28;20055;-84
2022/04/28 10:33:15;;;;;;;26.67;8.95;;;;;;;17.67;71.24;101723.38;5035492;28;20430;-83
2022/04/28 10:35:46;;;;;;;27.15;8.57;;;;;;;17.58;71.65;101709.81;5050634;28;20028;-84
2022/04/28 10:38:31;;;;;;;25.98;8.52;;;;;;;17.67;71.49;101723.38;5033012;28;20052;-81
2022/04/28 10:41:04;;;;;;;27.10;9.65;;;;;;;17.65;71.80;101730.34;5033577;28;20028;-81
2022/04/28 10:43:33;;;;;;;26.45;9.80;;;;;;;17.64;71.73;101721.53;5051186;28;20079;-81
2022/04/28 10:46:07;;;;;;;31.35;10.13;;;;;;;17.67;71.58;101728.66;5051106;28;20060;-81
2022/04/28 10:48:42;;;;;;;34.80;11.00;;;;;;;17.68;71.88;101733.13;5051205;28;20082;-84
2022/04/28 10:51:10;;;;;;;33.33;10.88;;;;;;;17.70;71.52;101729.69;5034005;28;20031;-84
2022/04/28 10:53:36;;;;;;;34.15;11.43;;;;;;;17.71;71.68;101733.22;5053190;28;20426;-84
2022/04/28 10:56:09;;;;;;;;;;;;;;;17.70;71.67;101734.09;5037889;28;20120;-82
2022/04/28 10:58:35;;;;;;;36.60;12.10;;;;;;;17.66;71.81;101727.78;5054100;28;19913;-84
2022/04/28 11:01:01;;;;;;;37.67;12.38;;;;;;;17.72;71.70;101727.13;5037412;28;20520;-84
2022/04/28 11:03:49;;;;;;;37.13;12.50;;;;;;;17.72;71.74;101726.22;5037379;28;20104;-84
2022/04/28 11:06:15;;;;;;;;;;;;;;;17.74;71.39;101728.09;5055539;28;20087;-84
2022/04/28 11:09:08;;;;;;;42.35;12.40;;;;;;;17.68;71.97;101722.56;5053775;28;19919;-84
2022/04/28 11:11:45;;;;;;;40.22;12.48;;;;;;;17.74;71.61;101730.72;5034482;28;20025;-84
2022/04/28 11:14:12;;;;;;;42.95;13.05;;;;;;;17.74;71.60;101719.25;5035434;28;20116;-84
2022/04/28 11:16:42;;;;;;;40.17;12.98;;;;;;;17.76;71.71;101725.47;5035610;28;20063;-84
2022/04/28 11:19:09;;;;;;;40.97;14.57;;;;;;;17.67;72.10;101707.53;5054599;28;20119;-84
2022/04/28 11:21:39;;;;;;;40.67;12.90;;;;;;;17.81;71.99;101726.59;5054497;28;20021;-83
2022/04/28 11:24:06;;;;;;;48.33;14.48;;;;;;;17.82;71.95;101726.69;5037404;28;20048;-83
2022/04/28 11:26:33;;;;;;;47.42;14.23;;;;;;;17.79;70.93;101707.13;5036441;28;20082;-82
2022/04/28 11:29:09;;;;;;;42.75;14.38;;;;;;;17.70;72.72;101708.56;5027990;28;20430;-82
2022/04/28 11:31:36;;;;;;;59.17;17.08;;;;;;;17.91;69.96;101720.88;5027051;28;20025;-85
2022/04/28 11:34:05;;;;;;;18.30;7.10;;;;;;;18.03;64.51;101725.72;5054546;28;20106;-85
2022/04/28 11:36:31;;;;;;;21.98;8.32;;;;;;;18.17;63.78;101719.22;5020868;28;20029;-84
2022/04/28 11:39:00;;;;;;;10.40;5.38;;;;;;;18.22;62.44;101709.72;5033149;28;20036;-87
2022/04/28 11:41:34;;;;;;;20.80;7.97;;;;;;;18.28;63.10;101694.06;4999603;28;20029;-85
2022/04/28 11:44:07;;;;;;;27.55;9.25;;;;;;;18.53;63.17;101724.09;5033345;28;20025;-84
2022/04/28 11:46:52;;;;;;;14.07;6.60;;;;;;;18.34;62.44;101698.72;5032650;28;20120;-85
2022/04/28 11:49:19;;;;;;;29.98;9.88;;;;;;;18.41;64.83;101710.41;5016409;28;20464;-84
2022/04/28 11:51:45;;;;;;;27.52;8.93;;;;;;;18.47;64.01;101705.34;5031702;28;20030;-85
2022/04/28 11:54:23;;;;;;;24.13;8.95;;;;;;;18.60;63.34;101717.28;5030840;28;20494;-85